sensor_id;sensor_type;location;lat;lon;timestamp;P1;durP1;ratioP1;P2;durP2;ratioP2
7997;SDS011;4044;49.814;7.828;2023-07-28T00:00:56;8.77;;;5.20;;
7997;SDS011;4044;49.814;7.828;2023-07-28T00:03:22;4.07;;;3.67;;
7997;SDS011;4044;49.814;7.828;2023-07-28T00:05:47;7.20;;;4.45;;
7997;SDS011;4044;49.814;7.828;2023-07-28T00:08:13;6.50;;;4.40;;
7997;SDS011;4044;49.814;7.828;2023-07-28T00:10:40;4.55;;;4.15;;
7997;SDS011;4044;49.814;7.828;2023-07-28T00:13:08;4.40;;;4.00;;
7997;SDS011;4044;49.814;7.828;2023-07-28T00:15:34;6.85;;;4.10;;
7997;SDS011;4044;49.814;7.828;2023-07-28T00:18:00;8.25;;;3.88;;
7997;SDS011;4044;49.814;7.828;2023-07-28T00:20:26;6.65;;;4.22;;
7997;SDS011;4044;49.814;7.828;2023-07-28T00:22:52;6.60;;;4.38;;
7997;SDS011;4044;49.814;7.828;2023-07-28T00:25:18;4.55;;;3.90;;
7997;SDS011;4044;49.814;7.828;2023-07-28T00:27:44;4.05;;;3.53;;
7997;SDS011;4044;49.814;7.828;2023-07-28T00:30:10;4.95;;;4.45;;
7997;SDS011;4044;49.814;7.828;2023-07-28T00:32:36;4.25;;;3.30;;
7997;SDS011;4044;49.814;7.828;2023-07-28T00:35:02;4.35;;;3.60;;
7997;SDS011;4044;49.814;7.828;2023-07-28T00:37:28;9.95;;;5.18;;
7997;SDS011;4044;49.814;7.828;2023-07-28T00:39:53;6.43;;;4.18;;
7997;SDS011;4044;49.814;7.828;2023-07-28T00:42:19;8.40;;;4.30;;
7997;SDS011;4044;49.814;7.828;2023-07-28T00:44:44;4.53;;;4.10;;
7997;SDS011;4044;49.814;7.828;2023-07-28T00:47:10;7.40;;;4.72;;
7997;SDS011;4044;49.814;7.828;2023-07-28T00:49:36;7.45;;;4.90;;
7997;SDS011;4044;49.814;7.828;2023-07-28T00:52:04;6.97;;;4.45;;
7997;SDS011;4044;49.814;7.828;2023-07-28T00:54:33;4.57;;;3.78;;
7997;SDS011;4044;49.814;7.828;2023-07-28T00:56:59;6.13;;;4.13;;
7997;SDS011;4044;49.814;7.828;2023-07-28T00:59:25;5.00;;;3.58;;
7997;SDS011;4044;49.814;7.828;2023-07-28T01:01:52;6.43;;;3.95;;
7997;SDS011;4044;49.814;7.828;2023-07-28T01:04:17;4.32;;;3.42;;
7997;SDS011;4044;49.814;7.828;2023-07-28T01:06:48;4.00;;;3.60;;
7997;SDS011;4044;49.814;7.828;2023-07-28T01:09:27;3.53;;;3.22;;
7997;SDS011;4044;49.814;7.828;2023-07-28T01:11:59;3.90;;;3.47;;
7997;SDS011;4044;49.814;7.828;2023-07-28T01:14:26;3.45;;;3.03;;
7997;SDS011;4044;49.814;7.828;2023-07-28T01:16:51;3.88;;;3.25;;
7997;SDS011;4044;49.814;7.828;2023-07-28T01:19:17;6.88;;;3.75;;
7997;SDS011;4044;49.814;7.828;2023-07-28T01:21:46;7.00;;;3.83;;
7997;SDS011;4044;49.814;7.828;2023-07-28T01:24:28;4.55;;;3.60;;
7997;SDS011;4044;49.814;7.828;2023-07-28T01:27:02;4.93;;;3.40;;
7997;SDS011;4044;49.814;7.828;2023-07-28T01:29:28;6.05;;;3.60;;
7997;SDS011;4044;49.814;7.828;2023-07-28T01:31:54;4.57;;;3.55;;
7997;SDS011;4044;49.814;7.828;2023-07-28T01:34:23;5.13;;;3.50;;
7997;SDS011;4044;49.814;7.828;2023-07-28T01:36:49;3.83;;;3.25;;
7997;SDS011;4044;49.814;7.828;2023-07-28T01:39:14;4.40;;;3.65;;
7997;SDS011;4044;49.814;7.828;2023-07-28T01:41:40;4.90;;;3.35;;
7997;SDS011;4044;49.814;7.828;2023-07-28T01:44:08;4.57;;;3.40;;
7997;SDS011;4044;49.814;7.828;2023-07-28T01:46:34;14.73;;;4.07;;
7997;SDS011;4044;49.814;7.828;2023-07-28T01:48:59;7.43;;;3.72;;
7997;SDS011;4044;49.814;7.828;2023-07-28T01:51:25;4.40;;;3.92;;
7997;SDS011;4044;49.814;7.828;2023-07-28T01:53:50;4.22;;;3.30;;
7997;SDS011;4044;49.814;7.828;2023-07-28T01:56:16;6.35;;;3.28;;
7997;SDS011;4044;49.814;7.828;2023-07-28T01:58:41;4.85;;;3.72;;
7997;SDS011;4044;49.814;7.828;2023-07-28T02:01:07;3.63;;;3.28;;
7997;SDS011;4044;49.814;7.828;2023-07-28T02:03:32;6.10;;;3.50;;
7997;SDS011;4044;49.814;7.828;2023-07-28T02:05:58;6.30;;;3.50;;
7997;SDS011;4044;49.814;7.828;2023-07-28T02:08:23;5.30;;;3.55;;
7997;SDS011;4044;49.814;7.828;2023-07-28T02:10:49;6.00;;;3.40;;
7997;SDS011;4044;49.814;7.828;2023-07-28T02:13:14;3.15;;;2.85;;
7997;SDS011;4044;49.814;7.828;2023-07-28T02:15:40;3.72;;;2.30;;
7997;SDS011;4044;49.814;7.828;2023-07-28T02:18:05;2.30;;;2.10;;
7997;SDS011;4044;49.814;7.828;2023-07-28T02:20:31;5.13;;;3.15;;
7997;SDS011;4044;49.814;7.828;2023-07-28T02:22:58;5.82;;;2.80;;
7997;SDS011;4044;49.814;7.828;2023-07-28T02:25:24;4.50;;;2.95;;
7997;SDS011;4044;49.814;7.828;2023-07-28T02:27:49;5.30;;;3.10;;
7997;SDS011;4044;49.814;7.828;2023-07-28T02:30:16;5.60;;;3.00;;
7997;SDS011;4044;49.814;7.828;2023-07-28T02:32:42;4.75;;;3.10;;
7997;SDS011;4044;49.814;7.828;2023-07-28T02:35:08;3.70;;;3.08;;
7997;SDS011;4044;49.814;7.828;2023-07-28T02:37:33;3.88;;;2.83;;
7997;SDS011;4044;49.814;7.828;2023-07-28T02:39:59;3.40;;;2.90;;
7997;SDS011;4044;49.814;7.828;2023-07-28T02:42:24;3.75;;;3.28;;
7997;SDS011;4044;49.814;7.828;2023-07-28T02:44:51;5.22;;;3.25;;
7997;SDS011;4044;49.814;7.828;2023-07-28T02:47:16;7.57;;;3.10;;
7997;SDS011;4044;49.814;7.828;2023-07-28T02:49:42;3.97;;;2.85;;
7997;SDS011;4044;49.814;7.828;2023-07-28T02:52:08;4.85;;;3.35;;
7997;SDS011;4044;49.814;7.828;2023-07-28T02:54:33;4.78;;;3.00;;
7997;SDS011;4044;49.814;7.828;2023-07-28T02:56:59;5.68;;;3.00;;
7997;SDS011;4044;49.814;7.828;2023-07-28T02:59:24;5.13;;;3.10;;
7997;SDS011;4044;49.814;7.828;2023-07-28T03:01:50;7.00;;;3.38;;
7997;SDS011;4044;49.814;7.828;2023-07-28T03:04:19;5.88;;;3.47;;
7997;SDS011;4044;49.814;7.828;2023-07-28T03:06:47;6.43;;;3.25;;
7997;SDS011;4044;49.814;7.828;2023-07-28T03:09:13;4.75;;;3.28;;
7997;SDS011;4044;49.814;7.828;2023-07-28T03:11:38;5.20;;;3.17;;
7997;SDS011;4044;49.814;7.828;2023-07-28T03:14:04;9.05;;;3.25;;
7997;SDS011;4044;49.814;7.828;2023-07-28T03:16:29;6.20;;;3.38;;
7997;SDS011;4044;49.814;7.828;2023-07-28T03:18:55;3.25;;;2.78;;
7997;SDS011;4044;49.814;7.828;2023-07-28T03:21:20;6.07;;;3.20;;
7997;SDS011;4044;49.814;7.828;2023-07-28T03:23:46;4.22;;;3.28;;
7997;SDS011;4044;49.814;7.828;2023-07-28T03:26:11;7.72;;;3.90;;
7997;SDS011;4044;49.814;7.828;2023-07-28T03:28:37;4.03;;;3.17;;
7997;SDS011;4044;49.814;7.828;2023-07-28T03:31:02;4.13;;;3.05;;
7997;SDS011;4044;49.814;7.828;2023-07-28T03:33:28;7.55;;;3.53;;
7997;SDS011;4044;49.814;7.828;2023-07-28T03:35:53;4.22;;;3.38;;
7997;SDS011;4044;49.814;7.828;2023-07-28T03:38:19;6.55;;;2.72;;
7997;SDS011;4044;49.814;7.828;2023-07-28T03:40:44;3.42;;;3.10;;
7997;SDS011;4044;49.814;7.828;2023-07-28T03:43:10;3.92;;;2.60;;
7997;SDS011;4044;49.814;7.828;2023-07-28T03:45:36;3.95;;;3.45;;
7997;SDS011;4044;49.814;7.828;2023-07-28T03:48:01;7.25;;;3.60;;
7997;SDS011;4044;49.814;7.828;2023-07-28T03:50:27;3.30;;;2.90;;
7997;SDS011;4044;49.814;7.828;2023-07-28T03:52:53;5.38;;;2.47;;
7997;SDS011;4044;49.814;7.828;2023-07-28T03:55:18;3.00;;;2.75;;
7997;SDS011;4044;49.814;7.828;2023-07-28T03:57:44;6.40;;;3.13;;
7997;SDS011;4044;49.814;7.828;2023-07-28T04:00:10;2.50;;;2.40;;
7997;SDS011;4044;49.814;7.828;2023-07-28T04:02:36;3.30;;;2.67;;
7997;SDS011;4044;49.814;7.828;2023-07-28T04:05:01;3.03;;;2.80;;
7997;SDS011;4044;49.814;7.828;2023-07-28T04:07:27;6.50;;;2.90;;
7997;SDS011;4044;49.814;7.828;2023-07-28T04:09:52;6.03;;;3.88;;
7997;SDS011;4044;49.814;7.828;2023-07-28T04:12:18;4.90;;;3.03;;
7997;SDS011;4044;49.814;7.828;2023-07-28T04:14:43;4.68;;;3.13;;
7997;SDS011;4044;49.814;7.828;2023-07-28T04:17:09;6.95;;;3.60;;
7997;SDS011;4044;49.814;7.828;2023-07-28T04:19:34;4.25;;;3.22;;
7997;SDS011;4044;49.814;7.828;2023-07-28T04:22:00;3.22;;;2.95;;
7997;SDS011;4044;49.814;7.828;2023-07-28T04:24:25;3.47;;;3.15;;
7997;SDS011;4044;49.814;7.828;2023-07-28T04:26:52;3.80;;;3.50;;
7997;SDS011;4044;49.814;7.828;2023-07-28T04:29:18;6.43;;;3.78;;
7997;SDS011;4044;49.814;7.828;2023-07-28T04:31:43;6.25;;;3.42;;
7997;SDS011;4044;49.814;7.828;2023-07-28T04:34:09;5.68;;;3.78;;
7997;SDS011;4044;49.814;7.828;2023-07-28T04:36:34;3.47;;;2.95;;
7997;SDS011;4044;49.814;7.828;2023-07-28T04:39:00;3.80;;;3.42;;
7997;SDS011;4044;49.814;7.828;2023-07-28T04:41:25;6.78;;;3.85;;
7997;SDS011;4044;49.814;7.828;2023-07-28T04:43:51;4.80;;;4.20;;
7997;SDS011;4044;49.814;7.828;2023-07-28T04:46:17;4.32;;;3.83;;
7997;SDS011;4044;49.814;7.828;2023-07-28T04:48:42;5.15;;;3.90;;
7997;SDS011;4044;49.814;7.828;2023-07-28T04:51:08;4.38;;;3.33;;
7997;SDS011;4044;49.814;7.828;2023-07-28T04:53:33;4.18;;;3.63;;
7997;SDS011;4044;49.814;7.828;2023-07-28T04:55:59;6.55;;;4.32;;
7997;SDS011;4044;49.814;7.828;2023-07-28T04:58:24;4.78;;;3.42;;
7997;SDS011;4044;49.814;7.828;2023-07-28T05:00:50;6.25;;;3.80;;
7997;SDS011;4044;49.814;7.828;2023-07-28T05:03:16;3.20;;;2.75;;
7997;SDS011;4044;49.814;7.828;2023-07-28T05:05:44;3.60;;;3.30;;
7997;SDS011;4044;49.814;7.828;2023-07-28T05:08:10;6.30;;;3.30;;
7997;SDS011;4044;49.814;7.828;2023-07-28T05:10:36;4.30;;;3.60;;
7997;SDS011;4044;49.814;7.828;2023-07-28T05:13:02;4.75;;;3.50;;
7997;SDS011;4044;49.814;7.828;2023-07-28T05:15:29;7.43;;;4.07;;
7997;SDS011;4044;49.814;7.828;2023-07-28T05:17:55;8.77;;;3.42;;
7997;SDS011;4044;49.814;7.828;2023-07-28T05:20:21;4.93;;;3.10;;
7997;SDS011;4044;49.814;7.828;2023-07-28T05:22:47;3.20;;;3.00;;
7997;SDS011;4044;49.814;7.828;2023-07-28T05:25:12;4.68;;;2.90;;
7997;SDS011;4044;49.814;7.828;2023-07-28T05:27:38;3.20;;;3.00;;
7997;SDS011;4044;49.814;7.828;2023-07-28T05:30:04;3.22;;;2.50;;
7997;SDS011;4044;49.814;7.828;2023-07-28T05:32:31;3.17;;;2.88;;
7997;SDS011;4044;49.814;7.828;2023-07-28T05:34:56;5.03;;;2.55;;
7997;SDS011;4044;49.814;7.828;2023-07-28T05:37:22;5.72;;;3.50;;
7997;SDS011;4044;49.814;7.828;2023-07-28T05:39:47;4.63;;;3.28;;
7997;SDS011;4044;49.814;7.828;2023-07-28T05:42:13;2.97;;;1.70;;
7997;SDS011;4044;49.814;7.828;2023-07-28T05:44:38;2.83;;;2.35;;
7997;SDS011;4044;49.814;7.828;2023-07-28T05:47:04;2.55;;;1.50;;
7997;SDS011;4044;49.814;7.828;2023-07-28T05:49:30;4.68;;;1.90;;
7997;SDS011;4044;49.814;7.828;2023-07-28T05:51:55;1.92;;;1.40;;
7997;SDS011;4044;49.814;7.828;2023-07-28T05:54:21;3.67;;;2.00;;
7997;SDS011;4044;49.814;7.828;2023-07-28T05:56:46;1.52;;;1.42;;
7997;SDS011;4044;49.814;7.828;2023-07-28T05:59:12;2.78;;;1.90;;
7997;SDS011;4044;49.814;7.828;2023-07-28T06:01:37;2.60;;;1.65;;
7997;SDS011;4044;49.814;7.828;2023-07-28T06:04:03;1.85;;;1.45;;
7997;SDS011;4044;49.814;7.828;2023-07-28T06:06:29;1.35;;;1.25;;
7997;SDS011;4044;49.814;7.828;2023-07-28T06:08:54;1.38;;;0.88;;
7997;SDS011;4044;49.814;7.828;2023-07-28T06:11:20;1.25;;;1.25;;
7997;SDS011;4044;49.814;7.828;2023-07-28T06:13:46;1.17;;;1.17;;
7997;SDS011;4044;49.814;7.828;2023-07-28T06:16:12;2.78;;;1.70;;
7997;SDS011;4044;49.814;7.828;2023-07-28T06:18:40;1.20;;;1.20;;
7997;SDS011;4044;49.814;7.828;2023-07-28T06:21:06;1.95;;;1.20;;
7997;SDS011;4044;49.814;7.828;2023-07-28T06:23:32;1.30;;;1.20;;
7997;SDS011;4044;49.814;7.828;2023-07-28T06:25:57;1.38;;;1.10;;
7997;SDS011;4044;49.814;7.828;2023-07-28T06:28:23;2.78;;;1.40;;
7997;SDS011;4044;49.814;7.828;2023-07-28T06:30:55;2.42;;;1.00;;
7997;SDS011;4044;49.814;7.828;2023-07-28T06:33:21;2.05;;;1.17;;
7997;SDS011;4044;49.814;7.828;2023-07-28T06:35:46;1.25;;;1.10;;
7997;SDS011;4044;49.814;7.828;2023-07-28T06:38:12;2.40;;;0.85;;
7997;SDS011;4044;49.814;7.828;2023-07-28T06:40:37;2.10;;;1.08;;
7997;SDS011;4044;49.814;7.828;2023-07-28T06:43:03;0.80;;;0.80;;
7997;SDS011;4044;49.814;7.828;2023-07-28T06:45:29;0.95;;;0.68;;
7997;SDS011;4044;49.814;7.828;2023-07-28T06:47:54;0.90;;;0.90;;
7997;SDS011;4044;49.814;7.828;2023-07-28T06:50:20;3.58;;;1.15;;
7997;SDS011;4044;49.814;7.828;2023-07-28T06:52:45;1.95;;;1.10;;
7997;SDS011;4044;49.814;7.828;2023-07-28T06:55:12;1.75;;;1.25;;
7997;SDS011;4044;49.814;7.828;2023-07-28T06:57:39;1.05;;;0.98;;
7997;SDS011;4044;49.814;7.828;2023-07-28T07:00:05;1.10;;;1.10;;
7997;SDS011;4044;49.814;7.828;2023-07-28T07:02:32;1.20;;;1.10;;
7997;SDS011;4044;49.814;7.828;2023-07-28T07:04:57;1.42;;;1.00;;
7997;SDS011;4044;49.814;7.828;2023-07-28T07:07:23;1.20;;;1.02;;
7997;SDS011;4044;49.814;7.828;2023-07-28T07:09:50;1.30;;;1.20;;
7997;SDS011;4044;49.814;7.828;2023-07-28T07:12:16;1.20;;;1.10;;
7997;SDS011;4044;49.814;7.828;2023-07-28T07:14:42;1.25;;;1.10;;
7997;SDS011;4044;49.814;7.828;2023-07-28T07:17:07;1.70;;;0.98;;
7997;SDS011;4044;49.814;7.828;2023-07-28T07:19:33;2.50;;;0.80;;
7997;SDS011;4044;49.814;7.828;2023-07-28T07:21:58;2.40;;;1.08;;
7997;SDS011;4044;49.814;7.828;2023-07-28T07:24:24;0.93;;;0.90;;
7997;SDS011;4044;49.814;7.828;2023-07-28T07:26:49;1.63;;;1.30;;
7997;SDS011;4044;49.814;7.828;2023-07-28T07:29:15;2.85;;;0.95;;
7997;SDS011;4044;49.814;7.828;2023-07-28T07:31:41;1.55;;;0.85;;
7997;SDS011;4044;49.814;7.828;2023-07-28T07:34:06;0.95;;;0.80;;
7997;SDS011;4044;49.814;7.828;2023-07-28T07:36:32;1.75;;;1.13;;
7997;SDS011;4044;49.814;7.828;2023-07-28T07:38:58;0.80;;;0.80;;
7997;SDS011;4044;49.814;7.828;2023-07-28T07:41:23;1.00;;;0.80;;
7997;SDS011;4044;49.814;7.828;2023-07-28T07:43:51;1.00;;;0.95;;
7997;SDS011;4044;49.814;7.828;2023-07-28T07:46:18;0.70;;;0.70;;
7997;SDS011;4044;49.814;7.828;2023-07-28T07:48:45;1.20;;;1.10;;
7997;SDS011;4044;49.814;7.828;2023-07-28T07:51:11;0.80;;;0.80;;
7997;SDS011;4044;49.814;7.828;2023-07-28T07:53:37;0.68;;;0.68;;
7997;SDS011;4044;49.814;7.828;2023-07-28T07:56:03;0.85;;;0.60;;
7997;SDS011;4044;49.814;7.828;2023-07-28T07:58:29;2.38;;;0.90;;
7997;SDS011;4044;49.814;7.828;2023-07-28T08:00:55;2.83;;;0.70;;
7997;SDS011;4044;49.814;7.828;2023-07-28T08:03:21;0.88;;;0.88;;
7997;SDS011;4044;49.814;7.828;2023-07-28T08:05:46;1.23;;;0.60;;
7997;SDS011;4044;49.814;7.828;2023-07-28T08:08:12;0.60;;;0.60;;
7997;SDS011;4044;49.814;7.828;2023-07-28T08:10:41;0.70;;;0.70;;
7997;SDS011;4044;49.814;7.828;2023-07-28T08:13:11;0.70;;;0.60;;
7997;SDS011;4044;49.814;7.828;2023-07-28T08:15:36;1.25;;;0.80;;
7997;SDS011;4044;49.814;7.828;2023-07-28T08:18:02;0.77;;;0.77;;
7997;SDS011;4044;49.814;7.828;2023-07-28T08:20:27;1.70;;;0.68;;
7997;SDS011;4044;49.814;7.828;2023-07-28T08:22:53;1.65;;;0.75;;
7997;SDS011;4044;49.814;7.828;2023-07-28T08:25:19;3.28;;;1.02;;
7997;SDS011;4044;49.814;7.828;2023-07-28T08:27:44;1.90;;;0.80;;
7997;SDS011;4044;49.814;7.828;2023-07-28T08:30:10;0.70;;;0.70;;
7997;SDS011;4044;49.814;7.828;2023-07-28T08:32:36;0.40;;;0.40;;
7997;SDS011;4044;49.814;7.828;2023-07-28T08:35:02;0.70;;;0.70;;
7997;SDS011;4044;49.814;7.828;2023-07-28T08:37:28;0.90;;;0.80;;
7997;SDS011;4044;49.814;7.828;2023-07-28T08:39:54;0.82;;;0.80;;
7997;SDS011;4044;49.814;7.828;2023-07-28T08:42:20;0.70;;;0.70;;
7997;SDS011;4044;49.814;7.828;2023-07-28T08:44:47;0.93;;;0.80;;
7997;SDS011;4044;49.814;7.828;2023-07-28T08:47:14;0.95;;;0.93;;
7997;SDS011;4044;49.814;7.828;2023-07-28T08:49:40;1.10;;;1.00;;
7997;SDS011;4044;49.814;7.828;2023-07-28T08:52:06;3.95;;;1.40;;
7997;SDS011;4044;49.814;7.828;2023-07-28T08:54:32;1.23;;;1.10;;
7997;SDS011;4044;49.814;7.828;2023-07-28T08:56:58;1.02;;;0.93;;
7997;SDS011;4044;49.814;7.828;2023-07-28T08:59:24;1.33;;;1.17;;
7997;SDS011;4044;49.814;7.828;2023-07-28T09:01:53;1.33;;;1.30;;
7997;SDS011;4044;49.814;7.828;2023-07-28T09:04:21;1.42;;;1.08;;
7997;SDS011;4044;49.814;7.828;2023-07-28T09:06:47;1.52;;;1.20;;
7997;SDS011;4044;49.814;7.828;2023-07-28T09:09:14;2.10;;;1.20;;
7997;SDS011;4044;49.814;7.828;2023-07-28T09:11:47;1.40;;;1.33;;
7997;SDS011;4044;49.814;7.828;2023-07-28T09:14:15;1.30;;;1.27;;
7997;SDS011;4044;49.814;7.828;2023-07-28T09:16:42;2.97;;;1.42;;
7997;SDS011;4044;49.814;7.828;2023-07-28T09:19:08;1.30;;;1.20;;
7997;SDS011;4044;49.814;7.828;2023-07-28T09:21:34;1.52;;;1.40;;
7997;SDS011;4044;49.814;7.828;2023-07-28T09:24:01;2.28;;;1.33;;
7997;SDS011;4044;49.814;7.828;2023-07-28T09:26:39;1.35;;;1.25;;
7997;SDS011;4044;49.814;7.828;2023-07-28T09:29:15;1.60;;;1.50;;
7997;SDS011;4044;49.814;7.828;2023-07-28T09:31:45;1.45;;;1.45;;
7997;SDS011;4044;49.814;7.828;2023-07-28T09:34:27;1.40;;;1.30;;
7997;SDS011;4044;49.814;7.828;2023-07-28T09:36:56;1.45;;;1.20;;
7997;SDS011;4044;49.814;7.828;2023-07-28T09:39:23;1.38;;;1.27;;
7997;SDS011;4044;49.814;7.828;2023-07-28T09:41:49;1.58;;;1.10;;
7997;SDS011;4044;49.814;7.828;2023-07-28T09:44:14;1.27;;;1.20;;
7997;SDS011;4044;49.814;7.828;2023-07-28T09:46:51;1.42;;;1.40;;
7997;SDS011;4044;49.814;7.828;2023-07-28T09:51:53;1.40;;;1.30;;
7997;SDS011;4044;49.814;7.828;2023-07-28T09:54:27;1.52;;;1.15;;
7997;SDS011;4044;49.814;7.828;2023-07-28T09:56:57;1.13;;;1.13;;
7997;SDS011;4044;49.814;7.828;2023-07-28T09:59:42;1.40;;;1.40;;
7997;SDS011;4044;49.814;7.828;2023-07-28T10:02:10;1.67;;;1.45;;
7997;SDS011;4044;49.814;7.828;2023-07-28T10:04:35;1.63;;;1.52;;
7997;SDS011;4044;49.814;7.828;2023-07-28T10:07:01;1.80;;;1.70;;
7997;SDS011;4044;49.814;7.828;2023-07-28T10:09:29;1.88;;;1.67;;
7997;SDS011;4044;49.814;7.828;2023-07-28T10:11:56;1.90;;;1.60;;
7997;SDS011;4044;49.814;7.828;2023-07-28T10:14:28;1.40;;;1.40;;
7997;SDS011;4044;49.814;7.828;2023-07-28T10:16:56;1.42;;;1.42;;
7997;SDS011;4044;49.814;7.828;2023-07-28T10:19:25;1.67;;;1.38;;
7997;SDS011;4044;49.814;7.828;2023-07-28T10:21:58;1.85;;;1.50;;
7997;SDS011;4044;49.814;7.828;2023-07-28T10:27:36;1.73;;;1.33;;
7997;SDS011;4044;49.814;7.828;2023-07-28T10:30:04;1.55;;;1.45;;
7997;SDS011;4044;49.814;7.828;2023-07-28T10:32:37;1.98;;;1.85;;
7997;SDS011;4044;49.814;7.828;2023-07-28T10:37:43;2.15;;;1.48;;
7997;SDS011;4044;49.814;7.828;2023-07-28T10:42:58;1.65;;;1.55;;
7997;SDS011;4044;49.814;7.828;2023-07-28T10:45:25;1.52;;;1.50;;
7997;SDS011;4044;49.814;7.828;2023-07-28T10:47:52;1.58;;;1.58;;
7997;SDS011;4044;49.814;7.828;2023-07-28T10:50:27;1.52;;;1.42;;
7997;SDS011;4044;49.814;7.828;2023-07-28T10:52:53;1.88;;;1.77;;
7997;SDS011;4044;49.814;7.828;2023-07-28T10:55:20;4.10;;;2.10;;
7997;SDS011;4044;49.814;7.828;2023-07-28T10:57:48;2.28;;;2.17;;
7997;SDS011;4044;49.814;7.828;2023-07-28T11:00:15;2.70;;;2.50;;
7997;SDS011;4044;49.814;7.828;2023-07-28T11:02:43;2.60;;;2.40;;
7997;SDS011;4044;49.814;7.828;2023-07-28T11:07:49;2.58;;;2.47;;
7997;SDS011;4044;49.814;7.828;2023-07-28T11:10:17;2.47;;;2.38;;
7997;SDS011;4044;49.814;7.828;2023-07-28T11:12:47;2.50;;;2.40;;
7997;SDS011;4044;49.814;7.828;2023-07-28T11:15:14;2.72;;;2.63;;
7997;SDS011;4044;49.814;7.828;2023-07-28T11:17:41;2.35;;;2.25;;
7997;SDS011;4044;49.814;7.828;2023-07-28T11:20:18;2.03;;;1.98;;
7997;SDS011;4044;49.814;7.828;2023-07-28T11:22:57;2.30;;;2.20;;
7997;SDS011;4044;49.814;7.828;2023-07-28T11:25:25;2.40;;;2.30;;
7997;SDS011;4044;49.814;7.828;2023-07-28T11:27:52;2.50;;;2.30;;
7997;SDS011;4044;49.814;7.828;2023-07-28T11:30:20;2.30;;;2.10;;
7997;SDS011;4044;49.814;7.828;2023-07-28T11:32:47;2.45;;;2.25;;
7997;SDS011;4044;49.814;7.828;2023-07-28T11:35:15;2.00;;;1.90;;
7997;SDS011;4044;49.814;7.828;2023-07-28T11:37:42;2.20;;;2.00;;
7997;SDS011;4044;49.814;7.828;2023-07-28T11:40:10;1.95;;;1.85;;
7997;SDS011;4044;49.814;7.828;2023-07-28T11:42:38;2.00;;;1.90;;
7997;SDS011;4044;49.814;7.828;2023-07-28T11:45:10;2.20;;;2.00;;
7997;SDS011;4044;49.814;7.828;2023-07-28T11:47:37;2.00;;;1.83;;
7997;SDS011;4044;49.814;7.828;2023-07-28T11:50:03;2.25;;;2.15;;
7997;SDS011;4044;49.814;7.828;2023-07-28T11:52:33;3.00;;;2.90;;
7997;SDS011;4044;49.814;7.828;2023-07-28T11:55:02;3.20;;;3.00;;
7997;SDS011;4044;49.814;7.828;2023-07-28T11:57:30;3.50;;;3.30;;
7997;SDS011;4044;49.814;7.828;2023-07-28T11:59:56;2.60;;;2.50;;
7997;SDS011;4044;49.814;7.828;2023-07-28T12:02:28;3.00;;;2.80;;
7997;SDS011;4044;49.814;7.828;2023-07-28T12:04:55;2.50;;;2.40;;
7997;SDS011;4044;49.814;7.828;2023-07-28T12:07:30;2.70;;;2.50;;
7997;SDS011;4044;49.814;7.828;2023-07-28T12:09:57;2.22;;;2.10;;
7997;SDS011;4044;49.814;7.828;2023-07-28T12:12:41;2.47;;;2.38;;
7997;SDS011;4044;49.814;7.828;2023-07-28T12:18:07;2.65;;;2.53;;
7997;SDS011;4044;49.814;7.828;2023-07-28T12:20:37;2.78;;;2.58;;
7997;SDS011;4044;49.814;7.828;2023-07-28T12:23:04;2.58;;;2.45;;
7997;SDS011;4044;49.814;7.828;2023-07-28T12:25:30;2.50;;;2.30;;
7997;SDS011;4044;49.814;7.828;2023-07-28T12:27:56;2.45;;;2.28;;
7997;SDS011;4044;49.814;7.828;2023-07-28T12:30:22;2.25;;;2.15;;
7997;SDS011;4044;49.814;7.828;2023-07-28T12:32:47;2.20;;;2.10;;
7997;SDS011;4044;49.814;7.828;2023-07-28T12:35:13;2.00;;;1.95;;
7997;SDS011;4044;49.814;7.828;2023-07-28T12:37:39;2.58;;;2.03;;
7997;SDS011;4044;49.814;7.828;2023-07-28T12:40:05;1.75;;;1.70;;
7997;SDS011;4044;49.814;7.828;2023-07-28T12:42:31;2.05;;;1.95;;
7997;SDS011;4044;49.814;7.828;2023-07-28T12:44:57;3.92;;;1.65;;
7997;SDS011;4044;49.814;7.828;2023-07-28T12:47:22;1.83;;;1.70;;
7997;SDS011;4044;49.814;7.828;2023-07-28T12:49:48;2.17;;;1.90;;
7997;SDS011;4044;49.814;7.828;2023-07-28T12:52:14;1.80;;;1.70;;
7997;SDS011;4044;49.814;7.828;2023-07-28T12:54:40;1.48;;;1.40;;
7997;SDS011;4044;49.814;7.828;2023-07-28T12:57:07;2.35;;;1.55;;
7997;SDS011;4044;49.814;7.828;2023-07-28T12:59:35;1.92;;;1.83;;
7997;SDS011;4044;49.814;7.828;2023-07-28T13:02:01;1.98;;;1.80;;
7997;SDS011;4044;49.814;7.828;2023-07-28T13:04:26;1.45;;;1.45;;
7997;SDS011;4044;49.814;7.828;2023-07-28T13:06:52;1.65;;;1.55;;
7997;SDS011;4044;49.814;7.828;2023-07-28T13:09:17;1.60;;;1.60;;
7997;SDS011;4044;49.814;7.828;2023-07-28T13:11:43;2.00;;;1.90;;
7997;SDS011;4044;49.814;7.828;2023-07-28T13:14:08;2.42;;;1.52;;
7997;SDS011;4044;49.814;7.828;2023-07-28T13:16:34;3.35;;;1.83;;
7997;SDS011;4044;49.814;7.828;2023-07-28T13:19:01;1.90;;;1.80;;
7997;SDS011;4044;49.814;7.828;2023-07-28T13:21:26;2.95;;;1.55;;
7997;SDS011;4044;49.814;7.828;2023-07-28T13:23:52;1.50;;;1.40;;
7997;SDS011;4044;49.814;7.828;2023-07-28T13:26:17;1.50;;;1.40;;
7997;SDS011;4044;49.814;7.828;2023-07-28T13:28:43;1.25;;;1.10;;
7997;SDS011;4044;49.814;7.828;2023-07-28T13:31:12;1.10;;;1.10;;
7997;SDS011;4044;49.814;7.828;2023-07-28T13:33:38;1.10;;;1.10;;
7997;SDS011;4044;49.814;7.828;2023-07-28T13:36:03;1.20;;;1.13;;
7997;SDS011;4044;49.814;7.828;2023-07-28T13:38:32;1.25;;;1.25;;
7997;SDS011;4044;49.814;7.828;2023-07-28T13:40:57;1.75;;;1.65;;
7997;SDS011;4044;49.814;7.828;2023-07-28T13:43:23;1.35;;;1.35;;
7997;SDS011;4044;49.814;7.828;2023-07-28T13:45:48;1.38;;;1.38;;
7997;SDS011;4044;49.814;7.828;2023-07-28T13:48:14;1.77;;;1.67;;
7997;SDS011;4044;49.814;7.828;2023-07-28T13:50:39;1.80;;;1.70;;
7997;SDS011;4044;49.814;7.828;2023-07-28T13:53:05;2.05;;;1.95;;
7997;SDS011;4044;49.814;7.828;2023-07-28T13:55:30;2.15;;;1.95;;
7997;SDS011;4044;49.814;7.828;2023-07-28T13:57:56;2.10;;;2.00;;
7997;SDS011;4044;49.814;7.828;2023-07-28T14:00:21;2.50;;;2.40;;
7997;SDS011;4044;49.814;7.828;2023-07-28T14:02:47;2.45;;;2.35;;
7997;SDS011;4044;49.814;7.828;2023-07-28T14:05:12;2.72;;;2.53;;
7997;SDS011;4044;49.814;7.828;2023-07-28T14:07:38;2.60;;;2.50;;
7997;SDS011;4044;49.814;7.828;2023-07-28T14:10:03;2.28;;;2.17;;
7997;SDS011;4044;49.814;7.828;2023-07-28T14:12:29;2.58;;;2.38;;
7997;SDS011;4044;49.814;7.828;2023-07-28T14:14:55;2.50;;;2.28;;
7997;SDS011;4044;49.814;7.828;2023-07-28T14:17:20;2.05;;;1.95;;
7997;SDS011;4044;49.814;7.828;2023-07-28T14:19:46;1.80;;;1.80;;
7997;SDS011;4044;49.814;7.828;2023-07-28T14:22:11;1.70;;;1.70;;
7997;SDS011;4044;49.814;7.828;2023-07-28T14:24:37;1.73;;;1.73;;
7997;SDS011;4044;49.814;7.828;2023-07-28T14:27:03;1.95;;;1.80;;
7997;SDS011;4044;49.814;7.828;2023-07-28T14:29:29;2.85;;;1.85;;
7997;SDS011;4044;49.814;7.828;2023-07-28T14:31:54;1.92;;;1.80;;
7997;SDS011;4044;49.814;7.828;2023-07-28T14:34:20;3.00;;;1.95;;
7997;SDS011;4044;49.814;7.828;2023-07-28T14:36:46;2.10;;;2.00;;
7997;SDS011;4044;49.814;7.828;2023-07-28T14:39:11;2.08;;;1.90;;
7997;SDS011;4044;49.814;7.828;2023-07-28T14:41:37;1.45;;;1.45;;
7997;SDS011;4044;49.814;7.828;2023-07-28T14:44:02;1.90;;;1.80;;
7997;SDS011;4044;49.814;7.828;2023-07-28T14:46:28;1.60;;;1.60;;
7997;SDS011;4044;49.814;7.828;2023-07-28T14:48:54;2.05;;;1.90;;
7997;SDS011;4044;49.814;7.828;2023-07-28T14:51:20;2.00;;;1.90;;
7997;SDS011;4044;49.814;7.828;2023-07-28T14:53:46;1.83;;;1.70;;
7997;SDS011;4044;49.814;7.828;2023-07-28T14:56:12;1.80;;;1.70;;
7997;SDS011;4044;49.814;7.828;2023-07-28T14:58:39;2.72;;;1.75;;
7997;SDS011;4044;49.814;7.828;2023-07-28T15:01:09;1.60;;;1.60;;
7997;SDS011;4044;49.814;7.828;2023-07-28T15:03:35;1.75;;;1.42;;
7997;SDS011;4044;49.814;7.828;2023-07-28T15:06:01;1.75;;;1.65;;
7997;SDS011;4044;49.814;7.828;2023-07-28T15:08:27;2.10;;;1.92;;
7997;SDS011;4044;49.814;7.828;2023-07-28T15:10:53;1.58;;;1.48;;
7997;SDS011;4044;49.814;7.828;2023-07-28T15:13:18;1.83;;;1.50;;
7997;SDS011;4044;49.814;7.828;2023-07-28T15:15:45;1.55;;;1.45;;
7997;SDS011;4044;49.814;7.828;2023-07-28T15:18:11;1.45;;;1.45;;
7997;SDS011;4044;49.814;7.828;2023-07-28T15:20:37;1.60;;;1.50;;
7997;SDS011;4044;49.814;7.828;2023-07-28T15:23:04;2.65;;;1.50;;
7997;SDS011;4044;49.814;7.828;2023-07-28T15:25:30;4.25;;;1.63;;
7997;SDS011;4044;49.814;7.828;2023-07-28T15:27:55;1.60;;;1.60;;